Terminal Aerodrome Forecast
Issued by NWS

Current Version | Previous Version | Text Only | Print | Product List | Glossary Off
Versions: 1 2 3 4 5 6 7 8 9 10 11 12 13 14 15 16 17 18 19 20 21 22 23

000
FTUS41 KPBZ 230307 AAA
TAFHLG
TAF AMD
KHLG 230307Z 2303/2324 VRB03KT 1 1/2SM BR OVC090
      TEMPO 2303/2306 1/2SM FG VV001
     FM230600 01003KT 1/2SM FG VV001
     FM231300 36007KT P6SM SCT060=

USA.gov is the U.S. government's official web portal to all federal, state and local government web resources and services.